sensor_id;sensor_type;location;lat;lon;timestamp;P1;durP1;ratioP1;P2;durP2;ratioP2
27495;SDS011;14929;51.336;9.416;2023-09-18T00:01:41;5.88;;;3.17;;
27495;SDS011;14929;51.336;9.416;2023-09-18T00:04:09;3.35;;;2.78;;
27495;SDS011;14929;51.336;9.416;2023-09-18T00:06:37;4.28;;;3.08;;
27495;SDS011;14929;51.336;9.416;2023-09-18T00:09:04;3.50;;;3.08;;
27495;SDS011;14929;51.336;9.416;2023-09-18T00:11:36;2.90;;;2.70;;
27495;SDS011;14929;51.336;9.416;2023-09-18T00:14:04;4.93;;;4.13;;
27495;SDS011;14929;51.336;9.416;2023-09-18T00:16:33;3.70;;;3.40;;
27495;SDS011;14929;51.336;9.416;2023-09-18T00:19:00;3.20;;;2.90;;
27495;SDS011;14929;51.336;9.416;2023-09-18T00:21:28;3.28;;;3.08;;
27495;SDS011;14929;51.336;9.416;2023-09-18T00:23:56;3.40;;;3.20;;
27495;SDS011;14929;51.336;9.416;2023-09-18T00:26:24;3.03;;;2.78;;
27495;SDS011;14929;51.336;9.416;2023-09-18T00:28:52;4.65;;;3.08;;
27495;SDS011;14929;51.336;9.416;2023-09-18T00:31:20;3.00;;;2.80;;
27495;SDS011;14929;51.336;9.416;2023-09-18T00:33:49;4.88;;;4.28;;
27495;SDS011;14929;51.336;9.416;2023-09-18T00:36:16;3.30;;;3.00;;
27495;SDS011;14929;51.336;9.416;2023-09-18T00:38:44;3.45;;;3.15;;
27495;SDS011;14929;51.336;9.416;2023-09-18T00:41:12;5.68;;;3.25;;
27495;SDS011;14929;51.336;9.416;2023-09-18T00:43:40;3.20;;;3.00;;
27495;SDS011;14929;51.336;9.416;2023-09-18T00:46:07;3.42;;;3.13;;
27495;SDS011;14929;51.336;9.416;2023-09-18T00:48:35;3.47;;;3.28;;
27495;SDS011;14929;51.336;9.416;2023-09-18T00:51:04;3.80;;;3.50;;
27495;SDS011;14929;51.336;9.416;2023-09-18T00:53:32;4.53;;;3.42;;
27495;SDS011;14929;51.336;9.416;2023-09-18T00:56:00;3.13;;;2.90;;
27495;SDS011;14929;51.336;9.416;2023-09-18T00:58:27;3.30;;;3.10;;
27495;SDS011;14929;51.336;9.416;2023-09-18T01:00:55;3.67;;;3.38;;
27495;SDS011;14929;51.336;9.416;2023-09-18T01:03:23;3.50;;;3.20;;
27495;SDS011;14929;51.336;9.416;2023-09-18T01:05:51;3.28;;;3.00;;
27495;SDS011;14929;51.336;9.416;2023-09-18T01:08:20;3.28;;;2.97;;
27495;SDS011;14929;51.336;9.416;2023-09-18T01:10:53;2.92;;;2.67;;
27495;SDS011;14929;51.336;9.416;2023-09-18T01:13:32;3.47;;;3.20;;
27495;SDS011;14929;51.336;9.416;2023-09-18T01:16:05;3.42;;;3.00;;
27495;SDS011;14929;51.336;9.416;2023-09-18T01:18:36;2.83;;;2.63;;
27495;SDS011;14929;51.336;9.416;2023-09-18T01:21:04;2.67;;;2.47;;
27495;SDS011;14929;51.336;9.416;2023-09-18T01:23:33;3.05;;;2.80;;
27495;SDS011;14929;51.336;9.416;2023-09-18T01:26:00;2.75;;;2.55;;
27495;SDS011;14929;51.336;9.416;2023-09-18T01:28:28;3.72;;;2.90;;
27495;SDS011;14929;51.336;9.416;2023-09-18T01:30:56;2.40;;;2.20;;
27495;SDS011;14929;51.336;9.416;2023-09-18T01:33:23;2.05;;;1.95;;
27495;SDS011;14929;51.336;9.416;2023-09-18T01:35:52;2.65;;;2.42;;
27495;SDS011;14929;51.336;9.416;2023-09-18T01:38:22;2.75;;;2.25;;
27495;SDS011;14929;51.336;9.416;2023-09-18T01:40:51;5.43;;;3.08;;
27495;SDS011;14929;51.336;9.416;2023-09-18T01:43:20;2.47;;;2.25;;
27495;SDS011;14929;51.336;9.416;2023-09-18T01:45:48;3.38;;;3.08;;
27495;SDS011;14929;51.336;9.416;2023-09-18T01:48:15;2.08;;;1.98;;
27495;SDS011;14929;51.336;9.416;2023-09-18T01:50:43;3.75;;;2.83;;
27495;SDS011;14929;51.336;9.416;2023-09-18T01:53:11;5.38;;;2.63;;
27495;SDS011;14929;51.336;9.416;2023-09-18T01:55:38;4.78;;;3.13;;
27495;SDS011;14929;51.336;9.416;2023-09-18T01:58:08;2.90;;;2.70;;
27495;SDS011;14929;51.336;9.416;2023-09-18T02:00:35;3.20;;;2.92;;
27495;SDS011;14929;51.336;9.416;2023-09-18T02:03:03;2.13;;;2.03;;
27495;SDS011;14929;51.336;9.416;2023-09-18T02:05:31;2.60;;;2.40;;
27495;SDS011;14929;51.336;9.416;2023-09-18T02:07:58;1.95;;;1.80;;
27495;SDS011;14929;51.336;9.416;2023-09-18T02:10:26;2.30;;;2.10;;
27495;SDS011;14929;51.336;9.416;2023-09-18T02:12:53;2.67;;;2.47;;
27495;SDS011;14929;51.336;9.416;2023-09-18T02:15:22;2.50;;;2.13;;
27495;SDS011;14929;51.336;9.416;2023-09-18T02:17:50;2.55;;;2.35;;
27495;SDS011;14929;51.336;9.416;2023-09-18T02:20:18;2.13;;;1.92;;
27495;SDS011;14929;51.336;9.416;2023-09-18T02:22:46;1.70;;;1.60;;
27495;SDS011;14929;51.336;9.416;2023-09-18T02:25:13;1.65;;;1.55;;
27495;SDS011;14929;51.336;9.416;2023-09-18T02:27:41;1.95;;;1.80;;
27495;SDS011;14929;51.336;9.416;2023-09-18T02:30:09;2.10;;;1.98;;
27495;SDS011;14929;51.336;9.416;2023-09-18T02:32:39;2.28;;;2.08;;
27495;SDS011;14929;51.336;9.416;2023-09-18T02:35:07;2.72;;;2.53;;
27495;SDS011;14929;51.336;9.416;2023-09-18T02:37:35;2.75;;;2.55;;
27495;SDS011;14929;51.336;9.416;2023-09-18T02:40:02;2.63;;;2.42;;
27495;SDS011;14929;51.336;9.416;2023-09-18T02:42:32;3.10;;;2.90;;
27495;SDS011;14929;51.336;9.416;2023-09-18T02:45:00;3.00;;;2.75;;
27495;SDS011;14929;51.336;9.416;2023-09-18T02:47:28;2.90;;;2.70;;
27495;SDS011;14929;51.336;9.416;2023-09-18T02:49:57;2.65;;;2.45;;
27495;SDS011;14929;51.336;9.416;2023-09-18T02:52:24;2.17;;;1.95;;
27495;SDS011;14929;51.336;9.416;2023-09-18T02:54:52;2.83;;;2.25;;
27495;SDS011;14929;51.336;9.416;2023-09-18T02:57:19;2.75;;;2.55;;
27495;SDS011;14929;51.336;9.416;2023-09-18T02:59:47;2.72;;;2.53;;
27495;SDS011;14929;51.336;9.416;2023-09-18T03:02:15;2.20;;;2.10;;
27495;SDS011;14929;51.336;9.416;2023-09-18T03:04:42;2.55;;;2.35;;
27495;SDS011;14929;51.336;9.416;2023-09-18T03:07:13;2.28;;;2.08;;
27495;SDS011;14929;51.336;9.416;2023-09-18T03:09:41;2.47;;;2.28;;
27495;SDS011;14929;51.336;9.416;2023-09-18T03:12:09;2.90;;;2.70;;
27495;SDS011;14929;51.336;9.416;2023-09-18T03:14:36;4.28;;;2.30;;
27495;SDS011;14929;51.336;9.416;2023-09-18T03:17:04;2.40;;;2.20;;
27495;SDS011;14929;51.336;9.416;2023-09-18T03:19:32;2.47;;;2.30;;
27495;SDS011;14929;51.336;9.416;2023-09-18T03:21:59;2.25;;;2.15;;
27495;SDS011;14929;51.336;9.416;2023-09-18T03:24:28;1.85;;;1.75;;
27495;SDS011;14929;51.336;9.416;2023-09-18T03:26:56;2.10;;;2.00;;
27495;SDS011;14929;51.336;9.416;2023-09-18T03:29:24;1.60;;;1.50;;
27495;SDS011;14929;51.336;9.416;2023-09-18T03:31:51;1.98;;;1.88;;
27495;SDS011;14929;51.336;9.416;2023-09-18T03:34:23;1.85;;;1.75;;
27495;SDS011;14929;51.336;9.416;2023-09-18T03:36:52;2.00;;;1.90;;
27495;SDS011;14929;51.336;9.416;2023-09-18T03:39:19;2.08;;;1.98;;
27495;SDS011;14929;51.336;9.416;2023-09-18T03:41:48;1.83;;;1.65;;
27495;SDS011;14929;51.336;9.416;2023-09-18T03:44:16;2.60;;;2.40;;
27495;SDS011;14929;51.336;9.416;2023-09-18T03:46:44;1.27;;;1.27;;
27495;SDS011;14929;51.336;9.416;2023-09-18T03:49:11;1.80;;;1.70;;
27495;SDS011;14929;51.336;9.416;2023-09-18T03:51:39;2.53;;;2.22;;
27495;SDS011;14929;51.336;9.416;2023-09-18T03:54:06;2.20;;;2.10;;
27495;SDS011;14929;51.336;9.416;2023-09-18T03:56:34;2.40;;;2.20;;
27495;SDS011;14929;51.336;9.416;2023-09-18T03:59:03;2.25;;;2.10;;
27495;SDS011;14929;51.336;9.416;2023-09-18T04:01:31;2.00;;;1.90;;
27495;SDS011;14929;51.336;9.416;2023-09-18T04:03:58;2.13;;;2.00;;
27495;SDS011;14929;51.336;9.416;2023-09-18T04:06:35;2.50;;;2.40;;
27495;SDS011;14929;51.336;9.416;2023-09-18T04:09:03;2.80;;;2.53;;
27495;SDS011;14929;51.336;9.416;2023-09-18T04:11:31;2.63;;;2.50;;
27495;SDS011;14929;51.336;9.416;2023-09-18T04:13:59;2.65;;;2.45;;
27495;SDS011;14929;51.336;9.416;2023-09-18T04:16:29;4.30;;;2.70;;
27495;SDS011;14929;51.336;9.416;2023-09-18T04:19:00;2.63;;;2.42;;
27495;SDS011;14929;51.336;9.416;2023-09-18T04:21:28;2.78;;;2.58;;
27495;SDS011;14929;51.336;9.416;2023-09-18T04:23:56;2.83;;;2.63;;
27495;SDS011;14929;51.336;9.416;2023-09-18T04:26:23;3.72;;;3.08;;
27495;SDS011;14929;51.336;9.416;2023-09-18T04:28:54;3.03;;;2.83;;
27495;SDS011;14929;51.336;9.416;2023-09-18T04:31:22;2.60;;;2.45;;
27495;SDS011;14929;51.336;9.416;2023-09-18T04:33:51;3.42;;;3.17;;
27495;SDS011;14929;51.336;9.416;2023-09-18T04:36:18;3.03;;;2.83;;
27495;SDS011;14929;51.336;9.416;2023-09-18T04:38:46;2.70;;;2.50;;
27495;SDS011;14929;51.336;9.416;2023-09-18T04:41:14;3.13;;;2.67;;
27495;SDS011;14929;51.336;9.416;2023-09-18T04:43:42;3.30;;;3.10;;
27495;SDS011;14929;51.336;9.416;2023-09-18T04:46:09;3.05;;;2.85;;
27495;SDS011;14929;51.336;9.416;2023-09-18T04:48:40;3.40;;;2.65;;
27495;SDS011;14929;51.336;9.416;2023-09-18T04:51:09;2.72;;;2.53;;
27495;SDS011;14929;51.336;9.416;2023-09-18T04:53:37;2.60;;;2.40;;
27495;SDS011;14929;51.336;9.416;2023-09-18T04:56:06;3.28;;;3.05;;
27495;SDS011;14929;51.336;9.416;2023-09-18T04:58:35;2.45;;;2.25;;
27495;SDS011;14929;51.336;9.416;2023-09-18T05:01:03;3.63;;;2.70;;
27495;SDS011;14929;51.336;9.416;2023-09-18T05:03:32;3.13;;;2.83;;
27495;SDS011;14929;51.336;9.416;2023-09-18T05:06:01;2.58;;;2.47;;
27495;SDS011;14929;51.336;9.416;2023-09-18T05:08:30;2.60;;;2.40;;
27495;SDS011;14929;51.336;9.416;2023-09-18T05:10:58;3.20;;;2.92;;
27495;SDS011;14929;51.336;9.416;2023-09-18T05:13:25;2.53;;;2.33;;
27495;SDS011;14929;51.336;9.416;2023-09-18T05:15:53;2.45;;;2.28;;
27495;SDS011;14929;51.336;9.416;2023-09-18T05:18:21;2.42;;;2.20;;
27495;SDS011;14929;51.336;9.416;2023-09-18T05:20:48;2.83;;;2.60;;
27495;SDS011;14929;51.336;9.416;2023-09-18T05:23:16;2.95;;;2.67;;
27495;SDS011;14929;51.336;9.416;2023-09-18T05:25:45;2.72;;;2.53;;
27495;SDS011;14929;51.336;9.416;2023-09-18T05:28:13;2.53;;;2.40;;
27495;SDS011;14929;51.336;9.416;2023-09-18T05:30:40;2.85;;;2.65;;
27495;SDS011;14929;51.336;9.416;2023-09-18T05:33:08;3.20;;;2.53;;
27495;SDS011;14929;51.336;9.416;2023-09-18T05:35:36;2.50;;;2.30;;
27495;SDS011;14929;51.336;9.416;2023-09-18T05:38:07;2.50;;;2.28;;
27495;SDS011;14929;51.336;9.416;2023-09-18T05:40:35;2.63;;;2.20;;
27495;SDS011;14929;51.336;9.416;2023-09-18T05:43:04;3.60;;;2.90;;
27495;SDS011;14929;51.336;9.416;2023-09-18T05:45:32;3.42;;;3.13;;
27495;SDS011;14929;51.336;9.416;2023-09-18T05:48:00;2.60;;;2.40;;
27495;SDS011;14929;51.336;9.416;2023-09-18T05:50:29;2.80;;;2.58;;
27495;SDS011;14929;51.336;9.416;2023-09-18T05:52:57;2.63;;;2.42;;
27495;SDS011;14929;51.336;9.416;2023-09-18T05:55:28;2.80;;;2.60;;
27495;SDS011;14929;51.336;9.416;2023-09-18T05:57:56;2.80;;;2.60;;
27495;SDS011;14929;51.336;9.416;2023-09-18T06:00:25;3.13;;;2.83;;
27495;SDS011;14929;51.336;9.416;2023-09-18T06:02:55;2.92;;;2.72;;
27495;SDS011;14929;51.336;9.416;2023-09-18T06:05:23;2.38;;;2.10;;
27495;SDS011;14929;51.336;9.416;2023-09-18T06:07:51;2.78;;;2.58;;
27495;SDS011;14929;51.336;9.416;2023-09-18T06:10:19;2.42;;;2.22;;
27495;SDS011;14929;51.336;9.416;2023-09-18T06:12:46;2.78;;;2.58;;
27495;SDS011;14929;51.336;9.416;2023-09-18T06:15:14;2.17;;;1.98;;
27495;SDS011;14929;51.336;9.416;2023-09-18T06:17:43;2.75;;;2.55;;
27495;SDS011;14929;51.336;9.416;2023-09-18T06:20:11;2.22;;;2.13;;
27495;SDS011;14929;51.336;9.416;2023-09-18T06:22:41;2.85;;;2.55;;
27495;SDS011;14929;51.336;9.416;2023-09-18T06:25:08;2.15;;;2.05;;
27495;SDS011;14929;51.336;9.416;2023-09-18T06:27:36;2.10;;;1.90;;
27495;SDS011;14929;51.336;9.416;2023-09-18T06:30:05;2.75;;;2.55;;
27495;SDS011;14929;51.336;9.416;2023-09-18T06:32:34;2.85;;;2.28;;
27495;SDS011;14929;51.336;9.416;2023-09-18T06:35:04;2.95;;;2.75;;
27495;SDS011;14929;51.336;9.416;2023-09-18T06:37:33;2.95;;;2.75;;
27495;SDS011;14929;51.336;9.416;2023-09-18T06:40:00;1.88;;;1.67;;
27495;SDS011;14929;51.336;9.416;2023-09-18T06:42:30;3.22;;;1.92;;
27495;SDS011;14929;51.336;9.416;2023-09-18T06:44:58;2.75;;;2.38;;
27495;SDS011;14929;51.336;9.416;2023-09-18T06:47:26;3.80;;;2.67;;
27495;SDS011;14929;51.336;9.416;2023-09-18T06:49:54;3.95;;;2.13;;
27495;SDS011;14929;51.336;9.416;2023-09-18T06:52:23;2.85;;;1.67;;
27495;SDS011;14929;51.336;9.416;2023-09-18T06:54:51;2.80;;;2.22;;
27495;SDS011;14929;51.336;9.416;2023-09-18T06:57:19;4.50;;;2.20;;
27495;SDS011;14929;51.336;9.416;2023-09-18T06:59:46;3.72;;;2.33;;
27495;SDS011;14929;51.336;9.416;2023-09-18T07:02:14;3.25;;;2.80;;
27495;SDS011;14929;51.336;9.416;2023-09-18T07:04:42;4.03;;;2.17;;
27495;SDS011;14929;51.336;9.416;2023-09-18T07:07:11;8.18;;;2.83;;
27495;SDS011;14929;51.336;9.416;2023-09-18T07:09:40;4.30;;;2.67;;
27495;SDS011;14929;51.336;9.416;2023-09-18T07:12:08;5.07;;;2.03;;
27495;SDS011;14929;51.336;9.416;2023-09-18T07:14:36;6.63;;;2.50;;
27495;SDS011;14929;51.336;9.416;2023-09-18T07:17:03;4.68;;;2.20;;
27495;SDS011;14929;51.336;9.416;2023-09-18T07:19:31;3.35;;;1.85;;
27495;SDS011;14929;51.336;9.416;2023-09-18T07:21:59;2.78;;;2.25;;
27495;SDS011;14929;51.336;9.416;2023-09-18T07:24:27;2.80;;;2.10;;
27495;SDS011;14929;51.336;9.416;2023-09-18T07:26:56;3.15;;;1.77;;
27495;SDS011;14929;51.336;9.416;2023-09-18T07:29:24;3.60;;;2.05;;
27495;SDS011;14929;51.336;9.416;2023-09-18T07:31:52;4.35;;;2.30;;
27495;SDS011;14929;51.336;9.416;2023-09-18T07:34:19;6.43;;;3.80;;
27495;SDS011;14929;51.336;9.416;2023-09-18T07:36:47;2.72;;;1.70;;
27495;SDS011;14929;51.336;9.416;2023-09-18T07:39:19;1.73;;;1.63;;
27495;SDS011;14929;51.336;9.416;2023-09-18T07:41:46;3.55;;;2.17;;
27495;SDS011;14929;51.336;9.416;2023-09-18T07:44:20;1.95;;;1.80;;
27495;SDS011;14929;51.336;9.416;2023-09-18T07:46:48;1.80;;;1.70;;
27495;SDS011;14929;51.336;9.416;2023-09-18T07:49:15;2.35;;;1.90;;
27495;SDS011;14929;51.336;9.416;2023-09-18T07:51:43;2.38;;;1.90;;
27495;SDS011;14929;51.336;9.416;2023-09-18T07:54:13;4.47;;;2.08;;
27495;SDS011;14929;51.336;9.416;2023-09-18T07:56:42;3.75;;;2.03;;
27495;SDS011;14929;51.336;9.416;2023-09-18T07:59:09;3.08;;;2.25;;
27495;SDS011;14929;51.336;9.416;2023-09-18T08:01:41;3.65;;;2.40;;
27495;SDS011;14929;51.336;9.416;2023-09-18T08:04:08;1.88;;;1.70;;
27495;SDS011;14929;51.336;9.416;2023-09-18T08:06:36;3.67;;;2.47;;
27495;SDS011;14929;51.336;9.416;2023-09-18T08:09:06;3.35;;;1.80;;
27495;SDS011;14929;51.336;9.416;2023-09-18T08:11:38;1.75;;;1.65;;
27495;SDS011;14929;51.336;9.416;2023-09-18T08:14:07;2.78;;;1.90;;
27495;SDS011;14929;51.336;9.416;2023-09-18T08:16:34;2.95;;;1.90;;
27495;SDS011;14929;51.336;9.416;2023-09-18T08:19:05;4.53;;;2.20;;
27495;SDS011;14929;51.336;9.416;2023-09-18T08:21:32;3.67;;;2.38;;
27495;SDS011;14929;51.336;9.416;2023-09-18T08:24:00;22.25;;;3.50;;
27495;SDS011;14929;51.336;9.416;2023-09-18T08:26:27;4.80;;;3.05;;
27495;SDS011;14929;51.336;9.416;2023-09-18T08:28:55;4.15;;;2.22;;
27495;SDS011;14929;51.336;9.416;2023-09-18T08:31:22;3.33;;;1.90;;
27495;SDS011;14929;51.336;9.416;2023-09-18T08:33:52;3.90;;;2.22;;
27495;SDS011;14929;51.336;9.416;2023-09-18T08:36:21;3.70;;;2.05;;
27495;SDS011;14929;51.336;9.416;2023-09-18T08:38:49;2.63;;;2.00;;
27495;SDS011;14929;51.336;9.416;2023-09-18T08:41:17;2.47;;;1.88;;
27495;SDS011;14929;51.336;9.416;2023-09-18T08:43:45;5.03;;;2.97;;
27495;SDS011;14929;51.336;9.416;2023-09-18T08:46:15;2.72;;;2.47;;
27495;SDS011;14929;51.336;9.416;2023-09-18T08:48:42;4.93;;;2.95;;
27495;SDS011;14929;51.336;9.416;2023-09-18T08:51:10;2.70;;;2.28;;
27495;SDS011;14929;51.336;9.416;2023-09-18T08:53:40;2.67;;;1.83;;
27495;SDS011;14929;51.336;9.416;2023-09-18T08:56:07;4.45;;;2.05;;
27495;SDS011;14929;51.336;9.416;2023-09-18T08:58:36;2.95;;;2.58;;
27495;SDS011;14929;51.336;9.416;2023-09-18T09:01:08;4.50;;;2.65;;
27495;SDS011;14929;51.336;9.416;2023-09-18T09:03:36;2.92;;;2.15;;
27495;SDS011;14929;51.336;9.416;2023-09-18T09:06:04;2.25;;;1.65;;
27495;SDS011;14929;51.336;9.416;2023-09-18T09:08:32;4.30;;;1.95;;
27495;SDS011;14929;51.336;9.416;2023-09-18T09:11:02;4.53;;;2.00;;
27495;SDS011;14929;51.336;9.416;2023-09-18T09:13:30;5.05;;;1.90;;
27495;SDS011;14929;51.336;9.416;2023-09-18T09:15:58;3.22;;;2.90;;
27495;SDS011;14929;51.336;9.416;2023-09-18T09:18:27;4.30;;;1.92;;
27495;SDS011;14929;51.336;9.416;2023-09-18T09:20:57;2.90;;;1.90;;
27495;SDS011;14929;51.336;9.416;2023-09-18T09:23:26;4.88;;;1.88;;
27495;SDS011;14929;51.336;9.416;2023-09-18T09:26:11;3.63;;;2.22;;
27495;SDS011;14929;51.336;9.416;2023-09-18T09:28:42;4.65;;;2.28;;
27495;SDS011;14929;51.336;9.416;2023-09-18T09:31:10;2.47;;;1.95;;
27495;SDS011;14929;51.336;9.416;2023-09-18T09:33:40;5.90;;;1.85;;
27495;SDS011;14929;51.336;9.416;2023-09-18T09:36:18;3.78;;;2.85;;
27495;SDS011;14929;51.336;9.416;2023-09-18T09:38:46;3.25;;;2.60;;
27495;SDS011;14929;51.336;9.416;2023-09-18T09:41:15;3.58;;;1.83;;
27495;SDS011;14929;51.336;9.416;2023-09-18T09:43:43;3.90;;;1.73;;
27495;SDS011;14929;51.336;9.416;2023-09-18T09:46:14;1.77;;;1.67;;
27495;SDS011;14929;51.336;9.416;2023-09-18T09:48:57;1.90;;;1.60;;
27495;SDS011;14929;51.336;9.416;2023-09-18T09:51:30;3.53;;;1.95;;
27495;SDS011;14929;51.336;9.416;2023-09-18T09:53:58;2.50;;;1.67;;
27495;SDS011;14929;51.336;9.416;2023-09-18T09:56:43;3.92;;;2.20;;
27495;SDS011;14929;51.336;9.416;2023-09-18T09:59:13;7.75;;;2.75;;
27495;SDS011;14929;51.336;9.416;2023-09-18T10:01:42;4.10;;;1.88;;
27495;SDS011;14929;51.336;9.416;2023-09-18T10:04:14;1.60;;;1.50;;
27495;SDS011;14929;51.336;9.416;2023-09-18T10:06:43;3.47;;;2.15;;
27495;SDS011;14929;51.336;9.416;2023-09-18T10:09:14;1.70;;;1.50;;
27495;SDS011;14929;51.336;9.416;2023-09-18T10:11:45;2.75;;;1.50;;
27495;SDS011;14929;51.336;9.416;2023-09-18T10:14:16;2.92;;;1.67;;
27495;SDS011;14929;51.336;9.416;2023-09-18T10:16:49;2.17;;;1.85;;
27495;SDS011;14929;51.336;9.416;2023-09-18T10:19:21;3.35;;;1.92;;
27495;SDS011;14929;51.336;9.416;2023-09-18T10:22:10;2.58;;;2.13;;
27495;SDS011;14929;51.336;9.416;2023-09-18T10:24:46;2.47;;;1.58;;
27495;SDS011;14929;51.336;9.416;2023-09-18T10:27:15;2.70;;;1.83;;
27495;SDS011;14929;51.336;9.416;2023-09-18T10:29:47;4.57;;;2.60;;
27495;SDS011;14929;51.336;9.416;2023-09-18T10:32:16;1.95;;;1.80;;
27495;SDS011;14929;51.336;9.416;2023-09-18T10:34:46;6.90;;;2.22;;
27495;SDS011;14929;51.336;9.416;2023-09-18T10:37:15;2.28;;;1.65;;
27495;SDS011;14929;51.336;9.416;2023-09-18T10:39:42;2.47;;;2.17;;
27495;SDS011;14929;51.336;9.416;2023-09-18T10:42:10;2.10;;;1.50;;
27495;SDS011;14929;51.336;9.416;2023-09-18T10:44:41;2.92;;;1.95;;
27495;SDS011;14929;51.336;9.416;2023-09-18T10:47:09;2.55;;;1.85;;
27495;SDS011;14929;51.336;9.416;2023-09-18T10:49:39;2.20;;;1.83;;
27495;SDS011;14929;51.336;9.416;2023-09-18T10:52:11;2.25;;;1.48;;
27495;SDS011;14929;51.336;9.416;2023-09-18T10:54:39;2.33;;;1.73;;
27495;SDS011;14929;51.336;9.416;2023-09-18T10:57:06;3.58;;;1.70;;
27495;SDS011;14929;51.336;9.416;2023-09-18T10:59:34;1.60;;;1.50;;
27495;SDS011;14929;51.336;9.416;2023-09-18T11:02:13;1.90;;;1.50;;
27495;SDS011;14929;51.336;9.416;2023-09-18T11:04:41;3.13;;;1.30;;
27495;SDS011;14929;51.336;9.416;2023-09-18T11:07:09;1.48;;;1.33;;
27495;SDS011;14929;51.336;9.416;2023-09-18T11:09:46;2.67;;;1.42;;
27495;SDS011;14929;51.336;9.416;2023-09-18T11:12:14;1.27;;;1.17;;
27495;SDS011;14929;51.336;9.416;2023-09-18T11:14:45;1.58;;;1.48;;
27495;SDS011;14929;51.336;9.416;2023-09-18T11:17:30;3.28;;;1.60;;
27495;SDS011;14929;51.336;9.416;2023-09-18T11:20:06;1.90;;;1.45;;
27495;SDS011;14929;51.336;9.416;2023-09-18T11:22:38;1.88;;;1.63;;
27495;SDS011;14929;51.336;9.416;2023-09-18T11:25:34;1.65;;;1.35;;
27495;SDS011;14929;51.336;9.416;2023-09-18T11:28:03;1.50;;;1.40;;
27495;SDS011;14929;51.336;9.416;2023-09-18T11:30:36;2.20;;;1.42;;
27495;SDS011;14929;51.336;9.416;2023-09-18T11:33:06;1.15;;;1.10;;
27495;SDS011;14929;51.336;9.416;2023-09-18T11:35:34;2.38;;;1.60;;
27495;SDS011;14929;51.336;9.416;2023-09-18T11:38:03;1.38;;;1.23;;
27495;SDS011;14929;51.336;9.416;2023-09-18T11:40:33;1.73;;;1.63;;
27495;SDS011;14929;51.336;9.416;2023-09-18T11:43:22;2.28;;;1.27;;
27495;SDS011;14929;51.336;9.416;2023-09-18T11:45:53;4.75;;;1.50;;
27495;SDS011;14929;51.336;9.416;2023-09-18T11:48:22;1.50;;;1.40;;
27495;SDS011;14929;51.336;9.416;2023-09-18T11:50:53;1.08;;;1.08;;
27495;SDS011;14929;51.336;9.416;2023-09-18T11:53:20;4.45;;;1.10;;
27495;SDS011;14929;51.336;9.416;2023-09-18T11:55:51;1.20;;;1.20;;
27495;SDS011;14929;51.336;9.416;2023-09-18T11:58:18;1.20;;;1.13;;
27495;SDS011;14929;51.336;9.416;2023-09-18T12:00:48;2.72;;;1.48;;
27495;SDS011;14929;51.336;9.416;2023-09-18T12:03:18;2.72;;;1.67;;
27495;SDS011;14929;51.336;9.416;2023-09-18T12:05:54;1.48;;;1.38;;
27495;SDS011;14929;51.336;9.416;2023-09-18T12:08:23;3.03;;;1.55;;
27495;SDS011;14929;51.336;9.416;2023-09-18T12:10:52;1.75;;;1.58;;
27495;SDS011;14929;51.336;9.416;2023-09-18T12:13:20;4.55;;;1.75;;
27495;SDS011;14929;51.336;9.416;2023-09-18T12:15:48;1.65;;;1.55;;
27495;SDS011;14929;51.336;9.416;2023-09-18T12:18:16;1.65;;;1.55;;
27495;SDS011;14929;51.336;9.416;2023-09-18T12:20:45;1.35;;;1.25;;
27495;SDS011;14929;51.336;9.416;2023-09-18T12:23:14;1.27;;;1.10;;
27495;SDS011;14929;51.336;9.416;2023-09-18T12:25:41;3.75;;;1.48;;
27495;SDS011;14929;51.336;9.416;2023-09-18T12:28:12;1.77;;;1.20;;
27495;SDS011;14929;51.336;9.416;2023-09-18T12:30:41;1.70;;;1.60;;
27495;SDS011;14929;51.336;9.416;2023-09-18T12:33:11;1.50;;;1.30;;
27495;SDS011;14929;51.336;9.416;2023-09-18T12:35:41;1.30;;;1.17;;
27495;SDS011;14929;51.336;9.416;2023-09-18T12:38:15;1.35;;;1.25;;
27495;SDS011;14929;51.336;9.416;2023-09-18T12:40:44;1.40;;;1.30;;
27495;SDS011;14929;51.336;9.416;2023-09-18T12:43:12;1.80;;;1.30;;
27495;SDS011;14929;51.336;9.416;2023-09-18T12:45:41;1.20;;;1.10;;
27495;SDS011;14929;51.336;9.416;2023-09-18T12:48:11;1.50;;;1.40;;
27495;SDS011;14929;51.336;9.416;2023-09-18T12:50:41;1.40;;;1.30;;
27495;SDS011;14929;51.336;9.416;2023-09-18T12:53:09;1.23;;;1.20;;
27495;SDS011;14929;51.336;9.416;2023-09-18T12:55:38;2.83;;;1.33;;
27495;SDS011;14929;51.336;9.416;2023-09-18T12:58:06;2.00;;;1.20;;
27495;SDS011;14929;51.336;9.416;2023-09-18T13:00:44;1.60;;;1.10;;
27495;SDS011;14929;51.336;9.416;2023-09-18T13:03:14;1.40;;;1.02;;
27495;SDS011;14929;51.336;9.416;2023-09-18T13:05:43;1.50;;;1.40;;
27495;SDS011;14929;51.336;9.416;2023-09-18T13:08:13;4.03;;;1.77;;
27495;SDS011;14929;51.336;9.416;2023-09-18T13:10:42;1.20;;;1.10;;
27495;SDS011;14929;51.336;9.416;2023-09-18T13:13:17;1.75;;;1.25;;
27495;SDS011;14929;51.336;9.416;2023-09-18T13:15:45;4.57;;;2.20;;
27495;SDS011;14929;51.336;9.416;2023-09-18T13:18:13;2.38;;;1.30;;
27495;SDS011;14929;51.336;9.416;2023-09-18T13:20:43;2.30;;;1.48;;
27495;SDS011;14929;51.336;9.416;2023-09-18T13:23:11;2.50;;;1.60;;
27495;SDS011;14929;51.336;9.416;2023-09-18T13:25:39;1.23;;;1.10;;
27495;SDS011;14929;51.336;9.416;2023-09-18T13:28:10;1.35;;;1.25;;
27495;SDS011;14929;51.336;9.416;2023-09-18T13:30:38;1.30;;;1.20;;
27495;SDS011;14929;51.336;9.416;2023-09-18T13:33:07;1.40;;;1.30;;
27495;SDS011;14929;51.336;9.416;2023-09-18T13:35:36;1.27;;;1.20;;
27495;SDS011;14929;51.336;9.416;2023-09-18T13:38:07;2.20;;;1.33;;
27495;SDS011;14929;51.336;9.416;2023-09-18T13:40:36;1.52;;;1.35;;
27495;SDS011;14929;51.336;9.416;2023-09-18T13:43:04;1.65;;;1.02;;
27495;SDS011;14929;51.336;9.416;2023-09-18T13:45:32;1.20;;;1.10;;
27495;SDS011;14929;51.336;9.416;2023-09-18T13:48:00;1.30;;;1.20;;
27495;SDS011;14929;51.336;9.416;2023-09-18T13:50:28;1.63;;;1.38;;
27495;SDS011;14929;51.336;9.416;2023-09-18T13:52:55;1.30;;;1.20;;
27495;SDS011;14929;51.336;9.416;2023-09-18T13:55:26;1.08;;;1.00;;
27495;SDS011;14929;51.336;9.416;2023-09-18T13:57:53;1.38;;;1.27;;
27495;SDS011;14929;51.336;9.416;2023-09-18T14:00:21;1.67;;;1.58;;
27495;SDS011;14929;51.336;9.416;2023-09-18T14:02:50;1.77;;;1.48;;
27495;SDS011;14929;51.336;9.416;2023-09-18T14:05:18;2.22;;;1.83;;
27495;SDS011;14929;51.336;9.416;2023-09-18T14:07:46;1.42;;;1.20;;
27495;SDS011;14929;51.336;9.416;2023-09-18T14:10:13;1.35;;;1.25;;
27495;SDS011;14929;51.336;9.416;2023-09-18T14:12:43;1.50;;;1.40;;
27495;SDS011;14929;51.336;9.416;2023-09-18T14:15:11;1.52;;;1.30;;
27495;SDS011;14929;51.336;9.416;2023-09-18T14:17:39;1.60;;;1.50;;
27495;SDS011;14929;51.336;9.416;2023-09-18T14:20:07;3.75;;;1.50;;
27495;SDS011;14929;51.336;9.416;2023-09-18T14:22:35;3.15;;;1.80;;
27495;SDS011;14929;51.336;9.416;2023-09-18T14:25:04;2.00;;;1.90;;
27495;SDS011;14929;51.336;9.416;2023-09-18T14:27:32;1.50;;;1.40;;
27495;SDS011;14929;51.336;9.416;2023-09-18T14:30:01;3.17;;;1.48;;
27495;SDS011;14929;51.336;9.416;2023-09-18T14:32:31;1.95;;;1.58;;
27495;SDS011;14929;51.336;9.416;2023-09-18T14:35:01;1.95;;;1.67;;
27495;SDS011;14929;51.336;9.416;2023-09-18T14:37:30;1.40;;;1.25;;
27495;SDS011;14929;51.336;9.416;2023-09-18T14:39:58;2.13;;;1.60;;
27495;SDS011;14929;51.336;9.416;2023-09-18T14:42:25;1.45;;;1.35;;
27495;SDS011;14929;51.336;9.416;2023-09-18T14:44:53;1.30;;;1.30;;
27495;SDS011;14929;51.336;9.416;2023-09-18T14:47:22;3.17;;;1.30;;
27495;SDS011;14929;51.336;9.416;2023-09-18T14:49:49;2.45;;;1.60;;
27495;SDS011;14929;51.336;9.416;2023-09-18T14:52:17;1.92;;;1.20;;
27495;SDS011;14929;51.336;9.416;2023-09-18T14:54:48;1.00;;;1.00;;
27495;SDS011;14929;51.336;9.416;2023-09-18T14:57:16;2.65;;;1.45;;
27495;SDS011;14929;51.336;9.416;2023-09-18T14:59:44;1.40;;;1.30;;